createdAt,value
2022-08-12T00:00:10.823Z,68.55
2022-08-12T00:02:57.020Z,69.36
2022-08-12T00:06:04.360Z,68.72
2022-08-12T00:08:49.472Z,68.42
2022-08-12T00:11:35.495Z,69.20
2022-08-12T00:14:21.078Z,69.70
2022-08-12T00:17:06.554Z,69.84
2022-08-12T00:19:52.302Z,70.37
2022-08-12T00:22:38.127Z,71.09
2022-08-12T00:26:05.597Z,71.17
2022-08-12T00:28:29.173Z,71.02
2022-08-12T00:31:14.777Z,71.81
2022-08-12T00:34:00.571Z,71.92
2022-08-12T00:36:57.400Z,71.11
2022-08-12T00:40:02.005Z,71.51
2022-08-12T00:42:50.597Z,71.69
2022-08-12T00:45:35.916Z,71.68
2022-08-12T00:48:21.003Z,70.23
2022-08-12T00:51:08.106Z,71.20
2022-08-12T00:53:53.481Z,71.38
2022-08-12T00:56:39.548Z,71.30
2022-08-12T00:59:24.801Z,72.25
2022-08-12T01:02:13.010Z,72.47
2022-08-12T01:04:59.335Z,72.70
2022-08-12T01:07:46.174Z,72.47
2022-08-12T01:10:36.269Z,72.96
2022-08-12T01:13:22.618Z,72.61
2022-08-12T01:16:09.306Z,72.12
2022-08-12T01:18:57.371Z,72.95
2022-08-12T01:22:03.845Z,72.75
2022-08-12T01:25:05.622Z,72.93
2022-08-12T01:27:52.087Z,73.54
2022-08-12T01:30:40.903Z,73.72
2022-08-12T01:33:30.754Z,73.78
2022-08-12T01:36:18.934Z,73.54
2022-08-12T01:39:04.461Z,72.59
2022-08-12T01:41:57.256Z,72.74
2022-08-12T01:44:43.991Z,73.11
2022-08-12T01:47:48.508Z,73.40
2022-08-12T01:51:01.313Z,73.57
2022-08-12T01:54:01.780Z,73.82
2022-08-12T01:56:58.992Z,74.45
2022-08-12T02:00:12.276Z,74.96
2022-08-12T02:03:12.391Z,74.97
2022-08-12T02:06:13.561Z,75.06
2022-08-12T02:09:01.255Z,74.77
2022-08-12T02:11:56.801Z,73.97
2022-08-12T02:15:10.723Z,74.57
2022-08-12T02:18:12.415Z,74.94
2022-08-12T02:21:27.326Z,74.92
2022-08-12T02:24:19.844Z,75.49
2022-08-12T02:27:06.915Z,75.62
2022-08-12T02:29:51.982Z,75.38
2022-08-12T02:32:42.343Z,75.73
2022-08-12T02:35:33.257Z,75.51
2022-08-12T02:38:20.610Z,75.81
2022-08-12T02:41:07.588Z,76.69
2022-08-12T02:43:58.582Z,76.26
2022-08-12T02:46:48.417Z,76.74
2022-08-12T02:49:37.857Z,76.60
2022-08-12T02:52:23.860Z,76.49
2022-08-12T02:55:28.439Z,76.33
2022-08-12T02:58:20.840Z,75.91
2022-08-12T03:01:24.277Z,75.69
2022-08-12T03:04:20.176Z,75.72
2022-08-12T03:07:20.102Z,76.27
2022-08-12T03:10:14.611Z,76.31
2022-08-12T03:13:02.887Z,76.79
2022-08-12T03:15:48.873Z,76.54
2022-08-12T03:18:34.185Z,76.03
2022-08-12T03:21:55.462Z,76.48
2022-08-12T03:24:26.472Z,76.79
2022-08-12T03:27:13.428Z,76.87
2022-08-12T03:29:59.140Z,76.78
2022-08-12T03:32:48.965Z,77.25
2022-08-12T03:35:40.605Z,77.45
2022-08-12T03:38:29.456Z,78.37
2022-08-12T03:41:19.048Z,79.34
2022-08-12T03:44:15.748Z,79.11
2022-08-12T03:47:33.430Z,78.77
2022-08-12T03:50:19.670Z,79.22
2022-08-12T03:53:07.585Z,79.03
2022-08-12T03:55:53.582Z,78.39
2022-08-12T03:58:39.549Z,78.90
2022-08-12T04:01:25.722Z,78.83
2022-08-12T04:04:13.364Z,79.02
2022-08-12T04:06:58.590Z,78.90
2022-08-12T04:09:46.107Z,79.01
2022-08-12T04:12:32.870Z,79.65
2022-08-12T04:15:22.382Z,80.25
2022-08-12T04:18:08.116Z,80.05
2022-08-12T04:20:54.979Z,79.53
2022-08-12T04:23:43.918Z,79.17
2022-08-12T04:26:33.234Z,79.57
2022-08-12T04:29:23.248Z,79.49
2022-08-12T04:32:28.549Z,79.13
2022-08-12T04:35:14.023Z,79.43
2022-08-12T04:38:01.032Z,80.68
2022-08-12T04:40:46.997Z,81.51
2022-08-12T04:44:01.070Z,81.82
2022-08-12T04:46:37.582Z,81.62
2022-08-12T04:49:23.801Z,80.14
2022-08-12T04:52:09.669Z,80.19
2022-08-12T04:54:55.218Z,80.57
2022-08-12T04:57:40.606Z,81.17
2022-08-12T05:00:26.155Z,81.53
2022-08-12T05:03:11.154Z,81.54
2022-08-12T05:05:56.652Z,81.92
2022-08-12T05:08:41.897Z,82.49
2022-08-12T05:11:27.586Z,82.96
2022-08-12T05:14:13.443Z,83.38
2022-08-12T05:16:59.948Z,83.11
2022-08-12T05:19:45.461Z,82.55
2022-08-12T05:22:31.356Z,81.56
2022-08-12T05:25:22.236Z,81.89
2022-08-12T05:28:07.475Z,82.94
2022-08-12T05:30:53.413Z,84.25
2022-08-12T05:33:38.755Z,85.54
2022-08-12T05:36:24.132Z,84.54
2022-08-12T05:39:09.168Z,84.59
2022-08-12T05:41:54.610Z,85.18
2022-08-12T05:44:39.741Z,85.50
2022-08-12T05:47:38.493Z,84.06
2022-08-12T05:50:30.464Z,84.52
2022-08-12T05:53:15.754Z,84.69
2022-08-12T05:56:01.313Z,86.06
2022-08-12T05:58:48.336Z,82.79
2022-08-12T06:02:10.938Z,79.76
2022-08-12T06:04:39.294Z,77.28
2022-08-12T06:08:00.630Z,73.41
2022-08-12T06:10:32.506Z,72.65
2022-08-12T06:13:28.588Z,72.38
2022-08-12T06:16:24.580Z,68.06
2022-08-12T06:19:10.204Z,67.18
2022-08-12T06:21:55.514Z,66.25
2022-08-12T06:24:40.845Z,64.81
2022-08-12T06:27:26.307Z,66.28
2022-08-12T06:30:16.301Z,63.73
2022-08-12T06:33:22.528Z,62.16
2022-08-12T06:36:11.401Z,61.06
2022-08-12T06:38:57.093Z,60.98
2022-08-12T06:42:05.081Z,61.13
2022-08-12T06:44:48.444Z,60.23
2022-08-12T06:47:44.286Z,58.69
2022-08-12T06:50:29.700Z,58.19
2022-08-12T06:53:16.384Z,58.17
2022-08-12T06:56:01.796Z,57.54
2022-08-12T06:58:47.163Z,57.19
2022-08-12T07:01:32.440Z,56.49
2022-08-12T07:04:35.851Z,57.60
2022-08-12T07:07:22.502Z,57.59
2022-08-12T07:13:11.009Z,55.97
2022-08-12T07:15:56.155Z,55.05
2022-08-12T07:18:43.022Z,53.62
2022-08-12T07:22:00.176Z,53.47
2022-08-12T07:24:33.539Z,52.92
2022-08-12T07:27:18.824Z,51.97
2022-08-12T07:30:05.409Z,51.69
2022-08-12T07:32:50.884Z,49.06
2022-08-12T07:35:38.753Z,48.80
2022-08-12T07:38:31.217Z,47.90
2022-08-12T07:41:18.437Z,46.91
2022-08-12T07:44:07.113Z,45.77
2022-08-12T07:46:52.471Z,45.02
2022-08-12T07:50:05.720Z,44.56
2022-08-12T07:52:45.425Z,44.70
2022-08-12T07:55:30.597Z,43.54
2022-08-12T07:58:15.527Z,44.14
2022-08-12T08:01:01.058Z,44.14
2022-08-12T08:03:52.011Z,43.13
2022-08-12T08:06:39.416Z,41.03
2022-08-12T08:09:24.787Z,40.94
2022-08-12T08:12:09.807Z,42.19
2022-08-12T08:15:04.847Z,41.27
2022-08-12T08:18:03.788Z,38.15
2022-08-12T08:20:48.977Z,36.98
2022-08-12T08:23:37.152Z,36.51
2022-08-12T08:26:22.242Z,36.53
2022-08-12T08:29:07.372Z,37.05
2022-08-12T08:31:53.871Z,34.72
2022-08-12T08:34:54.834Z,37.11
2022-08-12T08:37:40.157Z,32.93
2022-08-12T08:40:26.629Z,33.76
2022-08-12T08:43:11.779Z,32.60
2022-08-12T08:45:57.751Z,32.85
2022-08-12T08:48:42.958Z,33.83
2022-08-12T08:51:28.385Z,33.18
2022-08-12T08:54:13.830Z,33.61
2022-08-12T08:57:00.442Z,31.75
2022-08-12T08:59:45.462Z,32.34
2022-08-12T09:02:37.376Z,32.89
2022-08-12T09:05:25.824Z,32.18
2022-08-12T09:08:15.428Z,30.35
2022-08-12T09:11:07.708Z,29.98
2022-08-12T09:14:11.311Z,30.67
2022-08-12T09:16:58.182Z,29.32
2022-08-12T09:19:43.452Z,29.75
2022-08-12T09:22:43.229Z,27.63
2022-08-12T09:25:34.019Z,27.56
2022-08-12T09:32:02.913Z,27.24
2022-08-12T09:34:37.801Z,27.71
2022-08-12T09:37:28.384Z,30.13
2022-08-12T09:40:57.167Z,30.51
2022-08-12T09:43:53.437Z,30.43
2022-08-12T09:46:39.272Z,27.83
2022-08-12T09:49:25.301Z,29.07
2022-08-12T09:52:10.457Z,26.74
2022-08-12T09:54:59.803Z,27.58
2022-08-12T09:58:47.064Z,28.31
2022-08-12T10:00:53.837Z,28.62
2022-08-12T10:03:55.674Z,29.48
2022-08-12T10:06:53.999Z,29.35
2022-08-12T10:09:58.529Z,29.31
2022-08-12T10:13:07.081Z,30.80
2022-08-12T10:16:02.123Z,31.13
2022-08-12T10:18:55.882Z,30.94
2022-08-12T10:21:41.669Z,31.11
2022-08-12T10:24:27.396Z,31.18
2022-08-12T10:27:14.377Z,29.22
2022-08-12T10:30:37.025Z,30.37
2022-08-12T10:33:19.045Z,29.81
2022-08-12T10:36:11.637Z,28.85
2022-08-12T10:38:56.658Z,29.56
2022-08-12T10:41:57.855Z,32.20
2022-08-12T10:44:44.158Z,33.18
2022-08-12T10:48:14.977Z,33.70
2022-08-12T10:51:01.857Z,34.37
2022-08-12T10:53:46.634Z,34.07
2022-08-12T10:56:34.741Z,34.79
2022-08-12T10:59:20.429Z,31.92
2022-08-12T11:04:25.040Z,32.35
2022-08-12T11:07:05.540Z,32.99
2022-08-12T11:08:43.517Z,35.75
2022-08-12T11:12:35.967Z,32.97
2022-08-12T11:14:49.055Z,32.11
2022-08-12T11:17:52.655Z,32.57
2022-08-12T11:20:39.703Z,31.40
2022-08-12T11:23:37.004Z,31.74
2022-08-12T11:26:22.605Z,32.08
2022-08-12T11:29:22.663Z,34.50
2022-08-12T11:32:08.267Z,33.05
2022-08-12T11:34:55.301Z,33.12
2022-08-12T11:37:59.047Z,32.95
2022-08-12T11:40:45.096Z,32.94
2022-08-12T11:43:30.850Z,33.67
2022-08-12T11:46:18.559Z,33.30
2022-08-12T11:49:05.249Z,33.34
2022-08-12T11:51:57.571Z,33.00
2022-08-12T11:54:43.181Z,34.16
2022-08-12T11:58:07.028Z,32.31
2022-08-12T12:04:01.208Z,32.64
2022-08-12T12:06:52.968Z,32.07
2022-08-12T12:09:53.028Z,29.43
2022-08-12T12:12:38.674Z,28.42
2022-08-12T12:15:40.786Z,29.03
2022-08-12T12:18:30.871Z,26.31
2022-08-12T12:21:16.305Z,25.16
2022-08-12T12:24:01.739Z,25.72
2022-08-12T12:26:47.143Z,23.85
2022-08-12T12:30:19.886Z,23.82
2022-08-12T12:32:53.327Z,23.64
2022-08-12T12:36:18.211Z,22.50
2022-08-12T12:38:45.548Z,23.64
2022-08-12T12:42:44.079Z,23.26
2022-08-12T12:44:38.657Z,22.06
2022-08-12T12:47:29.105Z,22.90
2022-08-12T12:50:35.619Z,22.00
2022-08-12T12:54:06.067Z,21.45
2022-08-12T12:56:33.869Z,22.46
2022-08-12T12:59:54.528Z,21.41
2022-08-12T13:02:31.660Z,20.50
2022-08-12T13:05:17.688Z,20.58
2022-08-12T13:08:35.628Z,19.00
2022-08-12T13:11:21.544Z,19.44
2022-08-12T13:14:28.671Z,19.30
2022-08-12T13:17:17.852Z,20.32
2022-08-12T13:20:05.578Z,19.24
2022-08-12T13:22:51.048Z,19.93
2022-08-12T13:25:39.029Z,20.66
2022-08-12T13:28:28.415Z,20.77
2022-08-12T13:31:14.354Z,21.69
2022-08-12T13:34:33.387Z,22.59
2022-08-12T13:37:09.765Z,23.79
2022-08-12T13:39:55.136Z,23.28
2022-08-12T13:42:40.591Z,23.98
2022-08-12T13:45:29.080Z,24.85
2022-08-12T13:48:14.478Z,24.54
2022-08-12T13:51:04.920Z,25.35
2022-08-12T13:53:58.344Z,25.24
2022-08-12T13:56:50.200Z,27.32
2022-08-12T13:59:48.046Z,26.84
2022-08-12T14:02:33.925Z,27.15
2022-08-12T14:05:31.017Z,26.74
2022-08-12T14:08:24.091Z,26.65
2022-08-12T14:11:12.425Z,26.65
2022-08-12T14:14:03.575Z,27.02
2022-08-12T14:16:56.319Z,27.21
2022-08-12T14:19:51.301Z,27.00
2022-08-12T14:22:39.717Z,28.61
2022-08-12T14:25:35.705Z,29.29
2022-08-12T14:28:21.840Z,28.64
2022-08-12T14:31:16.575Z,28.13
2022-08-12T14:34:05.139Z,28.53
2022-08-12T14:36:50.459Z,29.11
2022-08-12T14:39:35.354Z,29.43
2022-08-12T14:42:26.055Z,27.89
2022-08-12T14:45:12.637Z,28.02
2022-08-12T14:47:58.631Z,28.57
2022-08-12T14:51:02.736Z,28.86
2022-08-12T14:54:52.883Z,27.84
2022-08-12T14:57:19.826Z,28.37
2022-08-12T15:00:02.750Z,28.53
2022-08-12T15:02:48.189Z,28.51
2022-08-12T15:06:05.968Z,28.78
2022-08-12T15:08:42.404Z,29.02
2022-08-12T15:11:27.991Z,29.30
2022-08-12T15:14:35.286Z,29.62
2022-08-12T15:17:38.379Z,29.57
2022-08-12T15:20:33.221Z,29.64
2022-08-12T15:23:32.962Z,30.78
2022-08-12T15:26:35.705Z,30.31
2022-08-12T15:29:23.190Z,29.87
2022-08-12T15:32:15.811Z,30.89
2022-08-12T15:35:01.332Z,31.80
2022-08-12T15:38:10.016Z,31.63
2022-08-12T15:40:56.823Z,30.91
2022-08-12T15:44:15.837Z,34.69
2022-08-12T15:46:49.477Z,32.04
2022-08-12T15:49:54.402Z,30.07
2022-08-12T15:52:40.053Z,29.63
2022-08-12T15:55:26.368Z,29.01
2022-08-12T15:58:18.841Z,29.78
2022-08-12T16:01:12.287Z,29.28
2022-08-12T16:03:59.335Z,29.71
2022-08-12T16:07:05.486Z,30.67
2022-08-12T16:10:05.168Z,30.13
2022-08-12T16:12:55.595Z,30.71
2022-08-12T16:15:42.338Z,29.59
2022-08-12T16:18:37.154Z,30.17
2022-08-12T16:21:52.243Z,28.99
2022-08-12T16:24:27.246Z,30.39
2022-08-12T16:27:12.061Z,30.29
2022-08-12T16:29:57.661Z,30.36
2022-08-12T16:32:46.442Z,30.01
2022-08-12T16:35:40.545Z,29.68
2022-08-12T16:38:29.030Z,30.24
2022-08-12T16:41:14.130Z,29.56
2022-08-12T16:43:59.918Z,29.90
2022-08-12T16:46:57.881Z,29.98
2022-08-12T16:49:43.768Z,30.31
2022-08-12T16:52:29.457Z,30.60
2022-08-12T16:55:15.212Z,29.98
2022-08-12T16:58:00.992Z,29.88
2022-08-12T17:00:48.305Z,29.99
2022-08-12T17:03:36.577Z,30.34
2022-08-12T17:06:22.684Z,30.62
2022-08-12T17:09:17.114Z,31.36
2022-08-12T17:12:04.319Z,32.12
2022-08-12T17:14:53.006Z,32.41
2022-08-12T17:17:39.822Z,33.42
2022-08-12T17:20:33.995Z,32.64
2022-08-12T17:23:24.099Z,31.55
2022-08-12T17:26:09.657Z,31.47
2022-08-12T17:28:58.613Z,31.76
2022-08-12T17:32:01.692Z,31.65
2022-08-12T17:34:49.421Z,32.17
2022-08-12T17:37:35.384Z,32.57
2022-08-12T17:40:34.781Z,31.89
2022-08-12T17:43:51.894Z,32.33
2022-08-12T17:46:33.408Z,33.04
2022-08-12T17:50:01.462Z,32.60
2022-08-12T17:52:23.824Z,32.98
2022-08-12T17:55:43.483Z,32.58
2022-08-12T17:58:35.809Z,33.10
2022-08-12T18:01:24.173Z,33.99
2022-08-12T18:04:22.170Z,35.83
2022-08-12T18:07:13.529Z,33.40
2022-08-12T18:10:00.030Z,34.10
2022-08-12T18:12:50.932Z,34.59
2022-08-12T18:16:03.862Z,34.62
2022-08-12T18:18:44.977Z,35.20
2022-08-12T18:22:01.067Z,34.28
2022-08-12T18:24:39.347Z,35.07
2022-08-12T18:27:30.146Z,35.32
2022-08-12T18:30:29.977Z,37.27
2022-08-12T18:33:15.377Z,37.09
2022-08-12T18:36:00.807Z,35.83
2022-08-12T18:38:51.312Z,35.94
2022-08-12T18:41:38.949Z,37.13
2022-08-12T18:44:25.985Z,36.03
2022-08-12T18:47:13.515Z,36.04
2022-08-12T18:49:59.054Z,37.31
2022-08-12T18:52:48.428Z,36.63
2022-08-12T18:55:37.448Z,36.14
2022-08-12T18:58:24.685Z,36.59
2022-08-12T19:02:18.939Z,37.67
2022-08-12T19:04:22.413Z,44.01
2022-08-12T19:07:20.726Z,45.01
2022-08-12T19:10:08.049Z,43.80
2022-08-12T19:12:57.180Z,45.92
2022-08-12T19:15:43.453Z,45.20
2022-08-12T19:18:31.395Z,43.24
2022-08-12T19:21:20.440Z,45.39
2022-08-12T19:24:06.008Z,46.70
2022-08-12T19:26:57.353Z,45.96
2022-08-12T19:29:44.280Z,46.56
2022-08-12T19:32:31.491Z,47.14
2022-08-12T19:38:21.797Z,48.47
2022-08-12T19:41:14.546Z,48.77
2022-08-12T19:44:18.640Z,50.27
2022-08-12T19:47:06.312Z,48.76
2022-08-12T19:49:55.104Z,49.12
2022-08-12T19:52:41.704Z,48.66
2022-08-12T19:55:28.732Z,49.04
2022-08-12T19:58:19.059Z,50.88
2022-08-12T20:01:05.202Z,49.63
2022-08-12T20:03:57.608Z,48.33
2022-08-12T20:06:51.321Z,50.54
2022-08-12T20:09:39.778Z,53.58
2022-08-12T20:12:31.862Z,49.82
2022-08-12T20:15:17.739Z,51.72
2022-08-12T20:18:03.047Z,52.41
2022-08-12T20:20:48.067Z,51.69
2022-08-12T20:23:37.085Z,52.34
2022-08-12T20:26:36.324Z,50.91
2022-08-12T20:29:22.659Z,49.61
2022-08-12T20:32:09.454Z,49.44
2022-08-12T20:34:54.751Z,50.22
2022-08-12T20:38:04.918Z,50.17
2022-08-12T20:40:47.964Z,50.32
2022-08-12T20:43:33.893Z,47.82
2022-08-12T20:46:20.163Z,45.57
2022-08-12T20:49:11.630Z,46.20
2022-08-12T20:52:01.633Z,43.64
2022-08-12T20:54:46.977Z,45.84
2022-08-12T20:57:38.292Z,48.16
2022-08-12T21:00:28.474Z,46.44
2022-08-12T21:03:14.000Z,48.03
2022-08-12T21:06:12.156Z,45.27
2022-08-12T21:08:58.307Z,45.22
2022-08-12T21:11:43.665Z,46.65
2022-08-12T21:14:39.979Z,44.42
2022-08-12T21:18:09.406Z,47.06
2022-08-12T21:20:41.883Z,46.53
2022-08-12T21:23:31.017Z,47.73
2022-08-12T21:26:22.128Z,46.88
2022-08-12T21:29:08.917Z,46.13
2022-08-12T21:32:47.062Z,48.20
2022-08-12T21:34:59.469Z,46.65
2022-08-12T21:37:53.356Z,46.34
2022-08-12T21:40:51.776Z,45.62
2022-08-12T21:43:44.936Z,45.67
2022-08-12T21:46:35.656Z,45.38
2022-08-12T21:49:53.641Z,45.79
2022-08-12T21:52:33.917Z,45.00
2022-08-12T21:55:20.517Z,47.82
2022-08-12T21:58:16.792Z,46.01
2022-08-12T22:01:03.680Z,46.30
2022-08-12T22:04:11.012Z,47.31
2022-08-12T22:06:59.256Z,46.79
2022-08-12T22:09:44.534Z,45.81
2022-08-12T22:12:30.909Z,47.13
2022-08-12T22:15:21.858Z,47.44
2022-08-12T22:18:07.354Z,46.39
2022-08-12T22:20:55.123Z,48.51
2022-08-12T22:23:51.837Z,46.02
2022-08-12T22:26:47.383Z,46.35
2022-08-12T22:29:32.661Z,45.90
2022-08-12T22:32:19.267Z,45.97
2022-08-12T22:35:08.029Z,47.29
2022-08-12T22:37:55.746Z,46.48
2022-08-12T22:40:53.640Z,48.17
2022-08-12T22:44:00.897Z,47.91
2022-08-12T22:46:52.530Z,48.31
2022-08-12T22:49:53.141Z,46.82
2022-08-12T22:52:42.207Z,50.57
2022-08-12T22:55:58.916Z,49.12
2022-08-12T22:58:33.392Z,48.85
2022-08-12T23:01:21.556Z,48.39
2022-08-12T23:04:28.407Z,48.06
2022-08-12T23:07:13.828Z,48.28
2022-08-12T23:09:58.757Z,49.24
2022-08-12T23:12:49.273Z,50.67
2022-08-12T23:15:34.404Z,49.25
2022-08-12T23:18:20.812Z,49.58
2022-08-12T23:21:06.840Z,48.30
2022-08-12T23:24:10.513Z,49.45
2022-08-12T23:26:57.188Z,52.83
2022-08-12T23:29:43.320Z,54.67
2022-08-12T23:32:36.051Z,52.16
2022-08-12T23:35:22.656Z,52.80
2022-08-12T23:38:07.932Z,52.48
2022-08-12T23:40:56.490Z,53.66
2022-08-12T23:43:46.719Z,52.64
2022-08-12T23:46:35.249Z,54.06
2022-08-12T23:49:55.379Z,55.75
2022-08-12T23:52:33.875Z,55.85
2022-08-12T23:55:25.184Z,55.61
2022-08-12T23:58:20.919Z,56.26
